createdAt,value
2023-01-21T00:03:37.685Z,6.30
2023-01-21T00:07:40.583Z,5.50
2023-01-21T00:11:44.844Z,6.33
2023-01-21T00:15:48.104Z,5.80
2023-01-21T00:19:51.083Z,5.33
2023-01-21T00:23:54.039Z,5.30
2023-01-21T00:28:00.035Z,5.73
2023-01-21T00:32:03.106Z,5.70
2023-01-21T00:36:08.580Z,5.40
2023-01-21T00:40:12.848Z,5.40
2023-01-21T00:44:17.789Z,5.17
2023-01-21T00:48:21.153Z,5.67
2023-01-21T00:52:24.049Z,6.00
2023-01-21T00:56:26.959Z,6.20
2023-01-21T01:00:31.319Z,6.17
2023-01-21T01:04:34.212Z,5.57
2023-01-21T01:08:37.602Z,5.87
2023-01-21T01:12:40.503Z,4.97
2023-01-21T01:16:44.982Z,5.50
2023-01-21T01:20:48.445Z,4.90
2023-01-21T01:24:51.302Z,5.37
2023-01-21T01:28:54.393Z,6.17
2023-01-21T01:32:58.710Z,6.13
2023-01-21T01:37:01.604Z,5.13
2023-01-21T01:41:05.093Z,5.20
2023-01-21T01:45:17.962Z,4.97
2023-01-21T01:49:23.347Z,5.20
2023-01-21T01:53:27.903Z,5.03
2023-01-21T01:57:36.743Z,4.33
2023-01-21T02:01:40.299Z,5.07
2023-01-21T02:05:46.106Z,4.70
2023-01-21T02:09:49.497Z,4.93
2023-01-21T02:13:55.446Z,5.47
2023-01-21T02:18:08.135Z,4.50
2023-01-21T02:22:20.873Z,4.47
2023-01-21T02:26:56.736Z,4.23
2023-01-21T02:31:27.179Z,4.50
2023-01-21T02:35:41.961Z,4.70
2023-01-21T02:39:59.743Z,4.83
2023-01-21T02:44:11.344Z,4.57
2023-01-21T02:48:19.022Z,4.37
2023-01-21T02:52:25.104Z,4.20
2023-01-21T02:56:28.987Z,4.50
2023-01-21T03:00:43.687Z,4.40
2023-01-21T03:04:58.938Z,4.93
2023-01-21T03:09:11.528Z,3.93
2023-01-21T03:13:39.445Z,3.63
2023-01-21T03:17:46.769Z,4.47
2023-01-21T03:21:51.915Z,4.00
2023-01-21T03:25:58.561Z,4.17
2023-01-21T03:30:05.930Z,3.87
2023-01-21T03:34:12.504Z,3.70
2023-01-21T03:38:19.497Z,3.67
2023-01-21T03:42:24.373Z,3.93
2023-01-21T03:46:37.739Z,4.20
2023-01-21T03:50:44.230Z,4.03
2023-01-21T03:54:48.348Z,4.47
2023-01-21T03:58:52.831Z,3.83
2023-01-21T04:02:55.853Z,4.13
2023-01-21T04:06:58.866Z,4.20
2023-01-21T04:11:01.888Z,4.30
2023-01-21T04:15:07.743Z,4.37
2023-01-21T04:19:11.240Z,4.27
2023-01-21T04:23:14.581Z,4.50
2023-01-21T04:27:17.581Z,4.37
2023-01-21T04:31:22.129Z,4.37
2023-01-21T04:35:25.233Z,3.97
2023-01-21T04:39:28.306Z,4.20
2023-01-21T04:43:31.347Z,4.27
2023-01-21T04:47:35.718Z,4.90
2023-01-21T04:51:38.740Z,3.90
2023-01-21T04:55:41.764Z,3.80
2023-01-21T04:59:44.765Z,4.87
2023-01-21T05:03:49.169Z,4.93
2023-01-21T05:07:53.731Z,4.50
2023-01-21T05:11:56.744Z,4.17
2023-01-21T05:16:04.899Z,4.17
2023-01-21T05:20:11.055Z,3.60
2023-01-21T05:24:14.556Z,3.63
2023-01-21T05:28:17.648Z,3.60
2023-01-21T05:32:21.016Z,4.40
2023-01-21T05:36:25.605Z,3.10
2023-01-21T05:40:28.633Z,3.57
2023-01-21T05:44:31.775Z,4.03
2023-01-21T05:48:34.807Z,4.57
2023-01-21T05:52:39.344Z,3.67
2023-01-21T05:56:42.424Z,3.70
2023-01-21T06:00:47.581Z,3.70
2023-01-21T06:04:50.627Z,4.03
2023-01-21T06:08:55.029Z,3.47
2023-01-21T06:12:58.077Z,3.27
2023-01-21T06:17:01.295Z,3.60
2023-01-21T06:21:04.424Z,3.70
2023-01-21T06:25:10.149Z,3.13
2023-01-21T06:29:13.237Z,3.80
2023-01-21T06:33:16.244Z,3.40
2023-01-21T06:37:19.240Z,3.40
2023-01-21T06:41:23.627Z,3.30
2023-01-21T06:45:26.663Z,3.30
2023-01-21T06:49:29.749Z,3.70
2023-01-21T06:53:32.762Z,3.30
2023-01-21T06:57:38.681Z,3.17
2023-01-21T07:01:41.813Z,2.80
2023-01-21T07:05:45.052Z,3.13
2023-01-21T07:09:48.103Z,3.03
2023-01-21T07:13:52.536Z,2.80
2023-01-21T07:17:55.714Z,3.10
2023-01-21T07:21:58.800Z,2.70
2023-01-21T07:26:02.062Z,2.73
2023-01-21T07:30:07.843Z,2.60
2023-01-21T07:34:11.268Z,2.27
2023-01-21T07:38:14.284Z,2.80
2023-01-21T07:42:17.400Z,3.00
2023-01-21T07:46:23.218Z,2.80
2023-01-21T07:50:26.338Z,2.60
2023-01-21T07:54:29.651Z,2.70
2023-01-21T07:58:32.694Z,2.50
2023-01-21T08:02:37.257Z,2.33
2023-01-21T08:06:41.487Z,2.90
2023-01-21T08:10:44.585Z,2.97
2023-01-21T08:14:47.739Z,3.10
2023-01-21T08:18:53.016Z,2.60
2023-01-21T08:22:56.026Z,2.77
2023-01-21T08:27:00.012Z,2.60
2023-01-21T08:31:08.454Z,2.40
2023-01-21T08:35:12.906Z,2.60
2023-01-21T08:39:16.623Z,2.90
2023-01-21T08:43:19.710Z,3.23
2023-01-21T08:47:22.753Z,2.50
2023-01-21T08:51:27.479Z,2.70
2023-01-21T08:55:30.569Z,2.97
2023-01-21T08:59:33.645Z,2.50
2023-01-21T09:03:36.787Z,2.97
2023-01-21T09:07:41.208Z,2.73
2023-01-21T09:11:44.512Z,2.90
2023-01-21T09:15:47.600Z,2.90
2023-01-21T09:19:51.204Z,2.50
2023-01-21T09:23:55.609Z,2.53
2023-01-21T09:27:58.878Z,2.57
2023-01-21T09:32:02.545Z,3.17
2023-01-21T09:36:07.863Z,2.43
2023-01-21T09:40:17.455Z,2.53
2023-01-21T09:44:26.661Z,2.50
2023-01-21T09:48:37.385Z,2.90
2023-01-21T09:52:41.611Z,2.70
2023-01-21T09:57:06.229Z,2.40
2023-01-21T10:01:14.672Z,2.60
2023-01-21T10:05:44.433Z,2.20
2023-01-21T10:10:07.851Z,2.67
2023-01-21T10:14:30.741Z,2.43
2023-01-21T10:18:38.772Z,2.37
2023-01-21T10:22:47.296Z,2.40
2023-01-21T10:26:53.794Z,2.70
2023-01-21T10:31:07.685Z,2.00
2023-01-21T10:35:18.879Z,2.23
2023-01-21T10:39:35.790Z,2.40
2023-01-21T10:43:46.715Z,2.30
2023-01-21T10:47:57.892Z,2.40
2023-01-21T10:52:08.303Z,2.27
2023-01-21T10:56:20.951Z,2.20
2023-01-21T11:00:26.631Z,2.30
2023-01-21T11:04:31.397Z,2.17
2023-01-21T11:08:34.458Z,2.20
2023-01-21T11:12:37.513Z,2.87
2023-01-21T11:16:46.357Z,2.40
2023-01-21T11:20:51.077Z,2.00
2023-01-21T11:24:54.404Z,2.13
2023-01-21T11:29:15.553Z,2.63
2023-01-21T11:33:26.858Z,2.50
2023-01-21T11:37:33.157Z,2.17
2023-01-21T11:41:36.985Z,1.93
2023-01-21T11:45:40.008Z,2.30
2023-01-21T11:49:48.956Z,2.03
2023-01-21T11:58:24.967Z,2.70
2023-01-21T12:02:31.509Z,2.43
2023-01-21T12:06:37.093Z,2.17
2023-01-21T12:10:45.687Z,2.20
2023-01-21T12:14:54.839Z,2.70
2023-01-21T12:19:26.083Z,2.20
2023-01-21T12:23:53.501Z,2.70
2023-01-21T12:28:07.475Z,2.50
2023-01-21T12:32:15.247Z,2.63
2023-01-21T12:36:24.346Z,2.47
2023-01-21T12:40:33.023Z,2.60
2023-01-21T12:44:42.925Z,2.70
2023-01-21T12:48:52.975Z,2.60
2023-01-21T12:53:12.401Z,2.57
2023-01-21T12:57:21.784Z,2.53
2023-01-21T13:01:50.314Z,2.73
2023-01-21T13:05:59.587Z,2.43
2023-01-21T13:10:13.572Z,2.60
2023-01-21T13:14:26.161Z,2.47
2023-01-21T13:18:35.595Z,2.70
2023-01-21T13:22:44.038Z,2.40
2023-01-21T13:26:55.723Z,2.80
2023-01-21T13:31:04.948Z,2.60
2023-01-21T13:35:32.950Z,3.50
2023-01-21T13:39:49.396Z,2.70
2023-01-21T13:44:07.051Z,2.93
2023-01-21T13:48:31.797Z,3.10
2023-01-21T13:52:44.989Z,3.07
2023-01-21T13:57:21.547Z,2.93
2023-01-21T14:01:29.027Z,2.60
2023-01-21T14:05:38.559Z,3.23
2023-01-21T14:09:48.611Z,2.60
2023-01-21T14:14:22.410Z,2.80
2023-01-21T14:18:49.339Z,2.70
2023-01-21T14:23:15.000Z,2.70
2023-01-21T14:27:29.560Z,2.90
2023-01-21T14:31:39.418Z,2.90
2023-01-21T14:35:48.391Z,2.70
2023-01-21T14:39:59.319Z,2.83
2023-01-21T14:44:02.463Z,2.70
2023-01-21T14:48:31.418Z,3.10
2023-01-21T14:52:39.143Z,2.60
2023-01-21T14:56:53.613Z,3.40
2023-01-21T15:00:56.721Z,3.00
2023-01-21T15:05:03.522Z,2.40
2023-01-21T15:09:09.267Z,3.13
2023-01-21T15:13:29.073Z,2.87
2023-01-21T15:17:46.702Z,2.67
2023-01-21T15:22:24.253Z,2.90
2023-01-21T15:26:33.822Z,2.93
2023-01-21T15:30:53.844Z,3.30
2023-01-21T15:35:05.099Z,3.13
2023-01-21T15:39:15.348Z,2.60
2023-01-21T15:43:27.063Z,2.90
2023-01-21T15:47:46.282Z,3.00
2023-01-21T15:52:02.491Z,3.20
2023-01-21T15:56:29.313Z,5.27
2023-01-21T16:00:39.114Z,2.83
2023-01-21T16:04:49.426Z,2.73
2023-01-21T16:09:04.951Z,2.77
2023-01-21T16:13:17.334Z,3.00
2023-01-21T16:17:27.243Z,3.07
2023-01-21T16:21:34.382Z,3.20
2023-01-21T16:25:47.328Z,2.73
2023-01-21T16:29:57.678Z,2.83
2023-01-21T16:34:00.673Z,3.07
2023-01-21T16:38:03.876Z,2.83
2023-01-21T16:42:14.778Z,2.73
2023-01-21T16:46:22.366Z,3.17
2023-01-21T16:50:28.116Z,3.30
2023-01-21T16:54:32.863Z,3.47
2023-01-21T16:58:36.402Z,3.10
2023-01-21T17:02:40.819Z,3.60
2023-01-21T17:06:46.511Z,3.53
2023-01-21T17:10:57.252Z,3.77
2023-01-21T17:15:03.580Z,3.37
2023-01-21T17:19:18.463Z,3.43
2023-01-21T17:23:25.811Z,3.43
2023-01-21T17:27:30.161Z,3.67
2023-01-21T17:31:38.048Z,3.87
2023-01-21T17:36:13.251Z,3.37
2023-01-21T17:40:29.022Z,4.17
2023-01-21T17:44:32.119Z,4.70
2023-01-21T17:48:39.112Z,3.80
2023-01-21T17:52:43.665Z,4.50
2023-01-21T17:56:51.493Z,4.30
2023-01-21T18:00:54.627Z,4.03
2023-01-21T18:04:57.708Z,4.23
2023-01-21T18:09:03.580Z,3.80
2023-01-21T18:13:06.833Z,4.70
2023-01-21T18:17:12.576Z,4.60
2023-01-21T18:21:20.948Z,4.47
2023-01-21T18:25:28.090Z,4.00
2023-01-21T18:29:31.962Z,4.43
2023-01-21T18:33:34.972Z,3.73
2023-01-21T18:37:38.080Z,4.80
2023-01-21T18:41:42.716Z,4.53
2023-01-21T18:45:45.792Z,4.10
2023-01-21T18:49:50.841Z,3.20
2023-01-21T18:53:53.847Z,3.70
2023-01-21T18:57:58.548Z,3.70
2023-01-21T19:02:01.612Z,4.30
2023-01-21T19:06:11.917Z,4.50
2023-01-21T19:10:17.345Z,4.77
2023-01-21T19:14:22.003Z,4.87
2023-01-21T19:18:26.777Z,4.47
2023-01-21T19:22:29.796Z,4.93
2023-01-21T19:26:32.848Z,4.80
2023-01-21T19:30:38.462Z,4.37
2023-01-21T19:34:42.492Z,5.10
2023-01-21T19:38:50.945Z,5.13
2023-01-21T19:42:54.621Z,4.57
2023-01-21T19:47:02.009Z,5.23
2023-01-21T19:51:05.355Z,5.23
2023-01-21T19:55:09.166Z,4.93
2023-01-21T19:59:15.502Z,5.17
2023-01-21T20:03:21.533Z,5.67
2023-01-21T20:07:24.569Z,5.20
2023-01-21T20:11:27.624Z,5.67
2023-01-21T20:15:34.235Z,5.00
2023-01-21T20:19:38.632Z,5.27
2023-01-21T20:23:41.923Z,5.43
2023-01-21T20:27:47.559Z,4.90
2023-01-21T20:31:51.933Z,5.30
2023-01-21T20:35:57.679Z,5.67
2023-01-21T20:40:00.705Z,5.17
2023-01-21T20:44:04.123Z,5.23
2023-01-21T20:48:07.692Z,5.10
2023-01-21T20:52:12.502Z,5.27
2023-01-21T20:56:19.909Z,5.93
2023-01-21T21:00:25.436Z,5.67
2023-01-21T21:04:29.987Z,5.37
2023-01-21T21:08:34.389Z,5.47
2023-01-21T21:12:37.482Z,5.47
2023-01-21T21:16:40.610Z,4.97
2023-01-21T21:20:43.860Z,5.63
2023-01-21T21:24:48.258Z,4.90
2023-01-21T21:28:54.570Z,4.97
2023-01-21T21:32:59.542Z,5.07
2023-01-21T21:37:02.572Z,4.73
2023-01-21T21:41:27.155Z,5.30
2023-01-21T21:45:30.439Z,6.03
2023-01-21T21:49:33.663Z,4.90
2023-01-21T21:53:37.921Z,5.43
2023-01-21T21:57:42.342Z,5.03
2023-01-21T22:01:45.883Z,5.27
2023-01-21T22:05:52.845Z,5.27
2023-01-21T22:09:55.883Z,4.80
2023-01-21T22:14:03.810Z,6.07
2023-01-21T22:18:07.115Z,5.80
2023-01-21T22:22:10.132Z,5.67
2023-01-21T22:26:15.722Z,5.77
2023-01-21T22:30:20.239Z,5.73
2023-01-21T22:34:23.225Z,5.47
2023-01-21T22:38:26.237Z,5.00
2023-01-21T22:42:29.276Z,5.37
2023-01-21T22:46:34.236Z,5.67
2023-01-21T22:50:41.312Z,5.43
2023-01-21T22:54:44.308Z,5.43
2023-01-21T22:58:47.417Z,4.83
2023-01-21T23:02:52.029Z,5.60
2023-01-21T23:06:55.909Z,5.00
2023-01-21T23:11:02.920Z,5.10
2023-01-21T23:15:06.649Z,5.80
2023-01-21T23:19:11.074Z,5.03
2023-01-21T23:23:14.303Z,5.37
2023-01-21T23:27:17.302Z,4.90
2023-01-21T23:31:20.409Z,5.30
2023-01-21T23:35:24.855Z,5.33
2023-01-21T23:39:27.871Z,5.17
2023-01-21T23:43:30.893Z,5.80
2023-01-21T23:47:33.904Z,5.23
2023-01-21T23:51:38.419Z,5.20
2023-01-21T23:55:41.487Z,5.13
2023-01-21T23:59:45.323Z,5.10
